createdAt,value
2023-02-17T00:00:40.079Z,7.85
2023-02-17T00:03:09.533Z,7.86
2023-02-17T00:05:41.633Z,7.86
2023-02-17T00:08:11.234Z,7.89
2023-02-17T00:10:43.310Z,7.94
2023-02-17T00:13:12.748Z,7.85
2023-02-17T00:15:42.309Z,7.79
2023-02-17T00:18:11.844Z,7.50
2023-02-17T00:20:41.402Z,7.39
2023-02-17T00:23:11.033Z,7.48
2023-02-17T00:25:45.899Z,7.43
2023-02-17T00:28:15.345Z,7.58
2023-02-17T00:30:44.892Z,7.70
2023-02-17T00:33:14.397Z,7.75
2023-02-17T00:35:44.287Z,7.79
2023-02-17T00:38:13.791Z,7.87
2023-02-17T00:40:46.089Z,7.96
2023-02-17T00:43:15.800Z,7.87
2023-02-17T00:45:45.303Z,7.96
2023-02-17T00:48:14.836Z,8.05
2023-02-17T00:50:44.385Z,8.00
2023-02-17T00:53:13.848Z,8.00
2023-02-17T00:55:45.931Z,7.99
2023-02-17T00:58:15.423Z,8.02
2023-02-17T01:00:45.001Z,8.09
2023-02-17T01:03:14.464Z,7.89
2023-02-17T01:05:44.502Z,7.64
2023-02-17T01:08:14.152Z,7.80
2023-02-17T01:10:47.347Z,7.92
2023-02-17T01:13:17.283Z,7.98
2023-02-17T01:15:49.000Z,8.04
2023-02-17T01:18:18.552Z,8.08
2023-02-17T01:20:48.094Z,8.15
2023-02-17T01:23:17.670Z,8.18
2023-02-17T01:25:50.792Z,8.16
2023-02-17T01:28:22.377Z,8.18
2023-02-17T01:30:52.143Z,7.76
2023-02-17T01:33:21.581Z,7.71
2023-02-17T01:35:51.132Z,7.93
2023-02-17T01:38:20.653Z,8.13
2023-02-17T01:40:52.923Z,8.21
2023-02-17T01:43:28.754Z,8.34
2023-02-17T01:45:59.117Z,8.42
2023-02-17T01:48:29.652Z,8.35
2023-02-17T01:51:02.559Z,8.41
2023-02-17T01:53:34.421Z,8.49
2023-02-17T01:56:06.864Z,8.52
2023-02-17T01:58:36.614Z,8.55
2023-02-17T02:01:06.516Z,8.57
2023-02-17T02:03:36.506Z,8.62
2023-02-17T02:06:07.916Z,8.66
2023-02-17T02:08:41.498Z,8.52
2023-02-17T02:11:13.559Z,8.53
2023-02-17T02:13:43.002Z,8.56
2023-02-17T02:16:15.758Z,8.60
2023-02-17T02:18:50.285Z,8.70
2023-02-17T02:21:52.053Z,8.73
2023-02-17T02:24:28.009Z,8.73
2023-02-17T02:27:32.306Z,8.69
2023-02-17T02:30:31.799Z,8.77
2023-02-17T02:33:06.863Z,8.74
2023-02-17T02:35:39.823Z,8.67
2023-02-17T02:38:12.375Z,8.69
2023-02-17T02:40:43.874Z,8.83
2023-02-17T02:43:15.170Z,8.77
2023-02-17T02:45:44.783Z,8.84
2023-02-17T02:48:16.864Z,8.91
2023-02-17T02:51:03.862Z,8.98
2023-02-17T02:53:58.783Z,9.02
2023-02-17T02:56:38.833Z,9.11
2023-02-17T02:59:13.096Z,9.13
2023-02-17T03:01:46.754Z,9.22
2023-02-17T03:04:21.625Z,9.25
2023-02-17T03:06:52.035Z,9.33
2023-02-17T03:09:23.877Z,9.29
2023-02-17T03:11:53.389Z,9.30
2023-02-17T03:14:23.459Z,9.25
2023-02-17T03:16:55.748Z,9.33
2023-02-17T03:19:27.948Z,9.41
2023-02-17T03:21:58.981Z,9.44
2023-02-17T03:24:28.223Z,9.49
2023-02-17T03:26:57.717Z,9.56
2023-02-17T03:29:27.294Z,9.58
2023-02-17T03:31:56.835Z,9.59
2023-02-17T03:34:28.963Z,9.54
2023-02-17T03:37:01.131Z,9.64
2023-02-17T03:39:31.639Z,9.70
2023-02-17T03:42:02.248Z,9.71
2023-02-17T03:44:31.722Z,9.77
2023-02-17T03:47:01.194Z,9.74
2023-02-17T03:49:33.246Z,9.85
2023-02-17T03:52:02.725Z,9.88
2023-02-17T03:54:34.170Z,9.86
2023-02-17T03:57:03.867Z,9.63
2023-02-17T03:59:33.366Z,9.52
2023-02-17T04:02:02.804Z,9.54
2023-02-17T04:04:36.313Z,9.58
2023-02-17T04:07:05.832Z,9.68
2023-02-17T04:09:35.320Z,9.77
2023-02-17T04:12:04.788Z,9.90
2023-02-17T04:14:34.266Z,9.99
2023-02-17T04:17:03.687Z,10.01
2023-02-17T04:19:35.722Z,10.07
2023-02-17T04:22:08.900Z,10.08
2023-02-17T04:24:38.722Z,10.18
2023-02-17T04:27:09.018Z,10.24
2023-02-17T04:29:38.485Z,10.29
2023-02-17T04:32:07.972Z,10.38
2023-02-17T04:34:40.181Z,10.34
2023-02-17T04:37:09.634Z,10.34
2023-02-17T04:39:39.145Z,10.30
2023-02-17T04:42:08.762Z,10.25
2023-02-17T04:44:38.211Z,10.29
2023-02-17T04:47:07.754Z,10.27
2023-02-17T04:49:39.816Z,10.34
2023-02-17T04:52:09.249Z,10.34
2023-02-17T04:54:39.102Z,10.32
2023-02-17T04:57:08.565Z,10.29
2023-02-17T04:59:38.170Z,10.27
2023-02-17T05:02:07.653Z,10.29
2023-02-17T05:04:39.695Z,10.25
2023-02-17T05:07:09.248Z,10.19
2023-02-17T05:09:38.745Z,10.19
2023-02-17T05:12:08.361Z,10.37
2023-02-17T05:14:38.002Z,10.50
2023-02-17T05:17:07.431Z,10.52
2023-02-17T05:19:37.075Z,10.52
2023-02-17T05:22:09.096Z,10.55
2023-02-17T05:24:38.999Z,10.60
2023-02-17T05:27:08.515Z,10.60
2023-02-17T05:29:38.029Z,10.74
2023-02-17T05:32:07.523Z,10.80
2023-02-17T05:34:37.051Z,10.71
2023-02-17T05:37:09.102Z,10.75
2023-02-17T05:39:38.577Z,10.76
2023-02-17T05:42:08.184Z,10.75
2023-02-17T05:44:37.709Z,10.70
2023-02-17T05:47:07.323Z,10.81
2023-02-17T05:49:36.775Z,10.80
2023-02-17T05:52:08.829Z,10.83
2023-02-17T05:54:38.241Z,10.85
2023-02-17T05:57:07.701Z,10.77
2023-02-17T05:59:37.158Z,10.86
2023-02-17T06:02:06.716Z,10.91
2023-02-17T06:04:36.280Z,10.99
2023-02-17T06:07:05.780Z,11.08
2023-02-17T06:09:37.826Z,11.04
2023-02-17T06:12:08.032Z,11.14
2023-02-17T06:14:37.495Z,11.23
2023-02-17T06:17:06.960Z,11.23
2023-02-17T06:19:36.436Z,11.25
2023-02-17T06:22:05.902Z,11.34
2023-02-17T06:24:37.944Z,11.33
2023-02-17T06:27:07.403Z,11.32
2023-02-17T06:29:36.964Z,11.34
2023-02-17T06:32:06.587Z,11.39
2023-02-17T06:34:36.057Z,11.46
2023-02-17T06:37:05.520Z,11.45
2023-02-17T06:39:37.789Z,11.48
2023-02-17T06:42:07.337Z,11.42
2023-02-17T06:44:36.803Z,11.47
2023-02-17T06:47:06.354Z,11.48
2023-02-17T06:49:35.839Z,11.49
2023-02-17T06:52:05.277Z,11.50
2023-02-17T06:54:34.738Z,11.45
2023-02-17T06:57:06.760Z,11.38
2023-02-17T06:59:36.233Z,11.37
2023-02-17T07:02:05.822Z,11.33
2023-02-17T07:04:35.473Z,11.37
2023-02-17T07:07:04.894Z,11.34
2023-02-17T07:09:34.402Z,11.36
2023-02-17T07:12:06.821Z,11.46
2023-02-17T07:14:36.775Z,11.56
2023-02-17T07:17:06.253Z,11.58
2023-02-17T07:19:35.751Z,11.58
2023-02-17T07:22:05.260Z,11.66
2023-02-17T07:24:35.067Z,11.63
2023-02-17T07:27:10.616Z,11.54
2023-02-17T07:29:40.381Z,11.59
2023-02-17T07:32:09.911Z,11.65
2023-02-17T07:34:40.245Z,11.66
2023-02-17T07:37:10.414Z,11.80
2023-02-17T07:39:39.895Z,11.91
2023-02-17T07:42:12.751Z,12.00
2023-02-17T07:44:42.245Z,12.16
2023-02-17T07:47:11.682Z,12.18
2023-02-17T07:49:41.156Z,12.24
2023-02-17T07:52:10.657Z,12.21
2023-02-17T07:54:40.203Z,12.11
2023-02-17T07:57:12.238Z,12.15
2023-02-17T07:59:41.732Z,12.17
2023-02-17T08:02:12.903Z,12.18
2023-02-17T08:04:42.414Z,12.35
2023-02-17T08:07:11.865Z,12.47
2023-02-17T08:10:05.683Z,12.57
2023-02-17T08:13:05.261Z,12.60
2023-02-17T08:15:35.918Z,12.60
2023-02-17T08:18:06.496Z,12.65
2023-02-17T08:20:36.004Z,12.71
2023-02-17T08:23:06.467Z,12.76
2023-02-17T08:25:36.419Z,12.78
2023-02-17T08:28:09.252Z,12.82
2023-02-17T08:30:39.236Z,12.77
2023-02-17T08:33:08.867Z,12.78
2023-02-17T08:35:38.369Z,12.84
2023-02-17T08:38:07.850Z,12.94
2023-02-17T08:40:37.368Z,12.96
2023-02-17T08:43:09.891Z,12.96
2023-02-17T08:45:39.375Z,12.88
2023-02-17T08:48:09.030Z,12.80
2023-02-17T08:50:38.526Z,12.62
2023-02-17T08:53:07.974Z,12.44
2023-02-17T08:55:48.580Z,12.41
2023-02-17T08:58:20.966Z,12.27
2023-02-17T09:00:50.475Z,12.20
2023-02-17T09:03:19.938Z,12.29
2023-02-17T09:05:50.546Z,12.35
2023-02-17T09:08:20.667Z,12.42
2023-02-17T09:10:50.368Z,12.50
2023-02-17T09:13:22.616Z,12.63
2023-02-17T09:15:54.068Z,12.63
2023-02-17T09:18:23.857Z,12.46
2023-02-17T09:20:53.410Z,12.57
2023-02-17T09:23:23.146Z,12.69
2023-02-17T09:25:52.615Z,12.72
2023-02-17T09:28:24.715Z,12.87
2023-02-17T09:30:54.399Z,12.86
2023-02-17T09:33:25.751Z,13.04
2023-02-17T09:35:56.337Z,13.12
2023-02-17T09:38:25.941Z,13.13
2023-02-17T09:40:55.427Z,13.21
2023-02-17T09:43:29.490Z,13.40
2023-02-17T09:46:00.965Z,13.47
2023-02-17T09:48:31.544Z,13.61
2023-02-17T09:51:02.697Z,13.91
2023-02-17T09:53:33.510Z,14.19
2023-02-17T09:56:05.099Z,14.31
2023-02-17T09:58:39.328Z,14.55
2023-02-17T10:01:12.172Z,14.71
2023-02-17T10:03:42.973Z,14.57
2023-02-17T10:06:15.991Z,14.46
2023-02-17T10:08:49.652Z,14.53
2023-02-17T10:11:23.236Z,14.46
2023-02-17T10:13:55.569Z,14.41
2023-02-17T10:16:26.935Z,14.48
2023-02-17T10:18:59.484Z,14.45
2023-02-17T10:21:30.796Z,14.43
2023-02-17T10:24:00.424Z,14.66
2023-02-17T10:26:45.308Z,14.70
2023-02-17T10:29:23.915Z,14.86
2023-02-17T10:31:57.658Z,14.97
2023-02-17T10:34:38.280Z,14.86
2023-02-17T10:37:09.157Z,14.81
2023-02-17T10:39:46.802Z,15.03
2023-02-17T10:42:19.828Z,15.15
2023-02-17T10:44:52.117Z,15.31
2023-02-17T10:47:21.661Z,15.27
2023-02-17T10:49:53.105Z,15.45
2023-02-17T10:52:24.951Z,15.31
2023-02-17T10:54:57.672Z,14.88
2023-02-17T10:57:27.612Z,15.23
2023-02-17T10:59:59.746Z,15.23
2023-02-17T11:02:38.240Z,15.28
2023-02-17T11:05:08.851Z,15.41
2023-02-17T11:07:39.438Z,15.46
2023-02-17T11:10:25.661Z,15.33
2023-02-17T11:12:56.034Z,15.27
2023-02-17T11:15:29.986Z,15.21
2023-02-17T11:17:59.685Z,15.29
2023-02-17T11:20:32.373Z,15.54
2023-02-17T11:23:11.056Z,15.62
2023-02-17T11:25:40.624Z,15.55
2023-02-17T11:28:14.186Z,15.80
2023-02-17T11:30:54.656Z,16.67
2023-02-17T11:33:26.128Z,17.40
2023-02-17T11:35:56.024Z,17.81
2023-02-17T11:38:27.145Z,17.67
2023-02-17T11:40:57.611Z,17.41
2023-02-17T11:43:28.634Z,17.60
2023-02-17T11:46:05.761Z,17.29
2023-02-17T11:48:55.151Z,17.32
2023-02-17T11:51:26.162Z,16.81
2023-02-17T11:54:01.200Z,16.81
2023-02-17T11:56:33.504Z,16.54
2023-02-17T11:59:11.268Z,16.22
2023-02-17T12:01:58.999Z,16.17
2023-02-17T12:04:29.373Z,16.04
2023-02-17T12:07:19.169Z,16.06
2023-02-17T12:09:59.088Z,16.17
2023-02-17T12:12:32.828Z,16.09
2023-02-17T12:15:06.613Z,15.90
2023-02-17T12:17:45.876Z,15.94
2023-02-17T12:20:29.018Z,15.80
2023-02-17T12:23:03.804Z,16.04
2023-02-17T12:25:34.281Z,16.02
2023-02-17T12:28:12.028Z,15.99
2023-02-17T12:30:50.094Z,15.93
2023-02-17T12:33:33.882Z,15.95
2023-02-17T12:36:05.469Z,15.99
2023-02-17T12:38:36.260Z,16.09
2023-02-17T12:41:08.396Z,16.03
2023-02-17T12:43:40.783Z,16.10
2023-02-17T12:46:16.554Z,16.13
2023-02-17T12:48:50.153Z,16.21
2023-02-17T12:51:21.876Z,16.04
2023-02-17T12:53:53.223Z,15.96
2023-02-17T12:56:44.202Z,15.95
2023-02-17T12:59:15.751Z,15.81
2023-02-17T13:01:57.832Z,15.84
2023-02-17T13:04:30.139Z,15.74
2023-02-17T13:07:06.107Z,15.79
2023-02-17T13:09:37.238Z,15.56
2023-02-17T13:12:17.938Z,15.69
2023-02-17T13:14:47.977Z,15.73
2023-02-17T13:17:28.770Z,15.70
2023-02-17T13:20:27.357Z,16.09
2023-02-17T13:23:10.157Z,16.15
2023-02-17T13:25:39.770Z,16.49
2023-02-17T13:28:36.243Z,16.45
2023-02-17T13:31:19.946Z,16.57
2023-02-17T13:33:51.890Z,16.78
2023-02-17T13:36:39.574Z,16.88
2023-02-17T13:39:29.502Z,16.43
2023-02-17T13:42:00.521Z,16.22
2023-02-17T13:44:32.922Z,16.03
2023-02-17T13:47:09.204Z,15.96
2023-02-17T13:49:38.667Z,15.90
2023-02-17T13:52:19.719Z,15.39
2023-02-17T13:54:56.231Z,15.46
2023-02-17T13:57:28.725Z,15.76
2023-02-17T14:00:11.849Z,15.60
2023-02-17T14:02:42.075Z,15.72
2023-02-17T14:05:18.373Z,15.92
2023-02-17T14:07:53.331Z,16.09
2023-02-17T14:10:25.025Z,16.23
2023-02-17T14:12:54.638Z,16.01
2023-02-17T14:15:25.362Z,15.89
2023-02-17T14:17:54.955Z,15.88
2023-02-17T14:20:32.379Z,15.80
2023-02-17T14:23:06.569Z,16.02
2023-02-17T14:25:37.519Z,16.09
2023-02-17T14:28:07.350Z,16.17
2023-02-17T14:30:38.733Z,16.25
2023-02-17T14:33:09.017Z,16.29
2023-02-17T14:35:39.554Z,16.31
2023-02-17T14:38:23.014Z,16.33
2023-02-17T14:40:57.549Z,16.00
2023-02-17T14:43:27.389Z,15.77
2023-02-17T14:45:56.876Z,15.83
2023-02-17T14:48:27.926Z,15.80
2023-02-17T14:50:58.846Z,15.91
2023-02-17T14:53:32.757Z,16.04
2023-02-17T14:56:03.269Z,15.98
2023-02-17T14:58:32.876Z,15.98
2023-02-17T15:01:02.402Z,16.01
2023-02-17T15:03:34.808Z,15.89
2023-02-17T15:06:12.677Z,15.84
2023-02-17T15:08:45.425Z,15.95
2023-02-17T15:11:19.650Z,16.00
2023-02-17T15:13:49.298Z,16.02
2023-02-17T15:16:19.148Z,15.79
2023-02-17T15:18:54.017Z,15.91
2023-02-17T15:21:28.073Z,15.95
2023-02-17T15:24:02.586Z,15.92
2023-02-17T15:26:32.927Z,16.00
2023-02-17T15:29:02.432Z,15.99
2023-02-17T15:31:32.680Z,15.91
2023-02-17T15:34:02.809Z,15.79
2023-02-17T15:36:32.889Z,15.74
2023-02-17T15:39:05.076Z,15.80
2023-02-17T15:41:34.578Z,15.89
2023-02-17T15:44:05.813Z,15.88
2023-02-17T15:46:36.432Z,15.94
2023-02-17T15:49:05.964Z,15.63
2023-02-17T15:51:35.461Z,15.52
2023-02-17T15:54:07.685Z,15.61
2023-02-17T15:56:43.236Z,15.61
2023-02-17T15:59:15.257Z,15.50
2023-02-17T16:01:45.258Z,15.53
2023-02-17T16:04:14.924Z,15.54
2023-02-17T16:06:44.701Z,15.62
2023-02-17T16:09:16.907Z,15.61
2023-02-17T16:11:49.623Z,15.45
2023-02-17T16:14:26.046Z,15.44
2023-02-17T16:16:55.475Z,15.45
2023-02-17T16:19:24.994Z,15.44
2023-02-17T16:21:54.491Z,15.42
2023-02-17T16:24:26.567Z,15.52
2023-02-17T16:26:56.414Z,15.44
2023-02-17T16:29:25.908Z,15.47
2023-02-17T16:31:55.978Z,15.33
2023-02-17T16:34:26.279Z,15.42
2023-02-17T16:36:56.878Z,15.38
2023-02-17T16:39:28.936Z,15.44
2023-02-17T16:41:58.685Z,15.38
2023-02-17T16:44:28.141Z,15.29
2023-02-17T16:46:59.579Z,15.31
2023-02-17T16:49:32.642Z,15.43
2023-02-17T16:52:02.337Z,15.36
2023-02-17T16:54:35.691Z,15.44
2023-02-17T16:57:05.477Z,15.36
2023-02-17T16:59:34.950Z,15.31
2023-02-17T17:02:04.416Z,15.36
2023-02-17T17:04:33.940Z,15.26
2023-02-17T17:07:03.407Z,15.30
2023-02-17T17:09:35.444Z,15.40
2023-02-17T17:12:04.902Z,15.27
2023-02-17T17:14:34.391Z,15.33
2023-02-17T17:17:04.340Z,15.35
2023-02-17T17:19:33.793Z,15.46
2023-02-17T17:22:03.452Z,15.19
2023-02-17T17:24:35.476Z,15.30
2023-02-17T17:27:04.944Z,15.30
2023-02-17T17:29:34.402Z,15.43
2023-02-17T17:32:04.051Z,15.47
2023-02-17T17:34:33.513Z,15.22
2023-02-17T17:37:02.979Z,15.22
2023-02-17T17:39:35.026Z,15.34
2023-02-17T17:42:04.495Z,15.24
2023-02-17T17:44:33.982Z,15.21
2023-02-17T17:47:03.804Z,15.38
2023-02-17T17:49:33.602Z,15.23
2023-02-17T17:52:03.057Z,15.24
2023-02-17T17:54:36.195Z,15.27
2023-02-17T17:57:05.770Z,15.26
2023-02-17T17:59:35.219Z,15.19
2023-02-17T18:02:04.689Z,15.15
2023-02-17T18:04:34.163Z,15.23
2023-02-17T18:07:03.861Z,15.29
2023-02-17T18:09:38.915Z,15.35
2023-02-17T18:12:11.210Z,15.30
2023-02-17T18:14:41.869Z,15.34
2023-02-17T18:17:11.396Z,15.36
2023-02-17T18:19:40.923Z,15.47
2023-02-17T18:22:10.901Z,15.41
2023-02-17T18:24:42.932Z,15.49
2023-02-17T18:27:12.400Z,15.51
2023-02-17T18:29:41.847Z,15.52
2023-02-17T18:32:11.522Z,15.39
2023-02-17T18:34:41.046Z,15.32
2023-02-17T18:37:10.602Z,15.39
2023-02-17T18:39:40.048Z,15.40
2023-02-17T18:42:12.211Z,15.36
2023-02-17T18:44:41.693Z,15.35
2023-02-17T18:47:11.168Z,15.20
2023-02-17T18:49:40.635Z,15.27
2023-02-17T18:52:10.097Z,15.08
2023-02-17T18:54:44.224Z,15.16
2023-02-17T18:57:16.301Z,15.17
2023-02-17T18:59:46.045Z,15.25
2023-02-17T19:02:15.603Z,15.20
2023-02-17T19:04:45.042Z,15.26
2023-02-17T19:07:14.539Z,15.24
2023-02-17T19:09:44.916Z,15.30
2023-02-17T19:12:16.953Z,15.38
2023-02-17T19:14:46.480Z,15.41
2023-02-17T19:17:18.383Z,15.41
2023-02-17T19:19:48.054Z,15.28
2023-02-17T19:22:17.537Z,15.25
2023-02-17T19:24:47.099Z,15.35
2023-02-17T19:27:19.208Z,15.38
2023-02-17T19:29:48.865Z,15.14
2023-02-17T19:32:18.398Z,15.14
2023-02-17T19:34:47.884Z,15.16
2023-02-17T19:37:17.376Z,15.16
2023-02-17T19:39:46.854Z,15.07
2023-02-17T19:42:18.877Z,15.11
2023-02-17T19:44:48.452Z,15.19
2023-02-17T19:47:17.962Z,15.30
2023-02-17T19:49:47.414Z,15.11
2023-02-17T19:52:17.061Z,15.17
2023-02-17T19:54:46.870Z,15.19
2023-02-17T19:57:20.047Z,15.28
2023-02-17T19:59:49.479Z,15.35
2023-02-17T20:02:19.091Z,15.41
2023-02-17T20:04:48.612Z,15.33
2023-02-17T20:07:18.072Z,15.39
2023-02-17T20:09:47.594Z,15.43
2023-02-17T20:12:21.676Z,15.51
2023-02-17T20:14:51.177Z,15.42
2023-02-17T20:17:20.633Z,15.27
2023-02-17T20:19:50.113Z,15.25
2023-02-17T20:22:19.597Z,15.31
2023-02-17T20:24:49.060Z,15.18
2023-02-17T20:27:21.558Z,15.16
2023-02-17T20:29:51.171Z,15.14
2023-02-17T20:32:20.761Z,15.19
2023-02-17T20:34:52.594Z,15.30
2023-02-17T20:37:22.195Z,15.44
2023-02-17T20:39:51.679Z,15.47
2023-02-17T20:42:23.743Z,15.39
2023-02-17T20:44:54.518Z,15.45
2023-02-17T20:47:24.001Z,15.35
2023-02-17T20:49:53.486Z,15.45
2023-02-17T20:52:22.954Z,15.37
2023-02-17T20:54:52.470Z,15.25
2023-02-17T20:57:24.507Z,15.29
2023-02-17T20:59:53.985Z,15.25
2023-02-17T21:02:23.540Z,15.26
2023-02-17T21:04:53.391Z,15.26
2023-02-17T21:07:22.868Z,15.21
2023-02-17T21:09:52.342Z,15.10
2023-02-17T21:12:24.408Z,15.00
2023-02-17T21:14:53.919Z,15.04
2023-02-17T21:17:23.380Z,14.95
2023-02-17T21:19:52.830Z,15.05
2023-02-17T21:22:22.371Z,15.09
2023-02-17T21:24:52.051Z,15.21
2023-02-17T21:27:24.119Z,15.21
2023-02-17T21:29:53.576Z,15.25
2023-02-17T21:32:23.128Z,15.13
2023-02-17T21:34:52.630Z,15.05
2023-02-17T21:37:22.275Z,15.02
2023-02-17T21:39:51.781Z,15.07
2023-02-17T21:42:48.431Z,15.05
2023-02-17T21:45:15.620Z,15.07
2023-02-17T21:47:45.747Z,15.07
2023-02-17T21:50:15.429Z,15.15
2023-02-17T21:52:44.916Z,15.19
2023-02-17T21:55:14.380Z,15.20
2023-02-17T21:57:46.483Z,15.14
2023-02-17T22:00:17.817Z,15.07
2023-02-17T22:02:47.353Z,15.14
2023-02-17T22:05:17.170Z,15.17
2023-02-17T22:07:46.641Z,15.28
2023-02-17T22:10:16.657Z,15.34
2023-02-17T22:12:48.704Z,15.30
2023-02-17T22:15:18.815Z,15.29
2023-02-17T22:17:48.279Z,15.33
2023-02-17T22:20:19.305Z,15.29
2023-02-17T22:22:48.569Z,15.20
2023-02-17T22:25:18.123Z,15.24
2023-02-17T22:27:50.608Z,15.27
2023-02-17T22:30:20.488Z,15.10
2023-02-17T22:32:49.911Z,15.19
2023-02-17T22:35:20.987Z,15.22
2023-02-17T22:37:50.497Z,15.25
2023-02-17T22:40:20.445Z,15.32
2023-02-17T22:42:52.521Z,15.06
2023-02-17T22:45:22.015Z,15.16
2023-02-17T22:47:51.469Z,15.24
2023-02-17T22:50:20.969Z,15.34
2023-02-17T22:52:50.482Z,15.23
2023-02-17T22:55:20.085Z,15.24
2023-02-17T22:57:52.147Z,15.20
2023-02-17T23:00:22.013Z,15.19
2023-02-17T23:02:54.260Z,15.19
2023-02-17T23:05:23.703Z,15.02
2023-02-17T23:07:54.200Z,15.03
2023-02-17T23:10:23.669Z,15.05
2023-02-17T23:12:55.745Z,15.05
2023-02-17T23:15:39.294Z,15.13
2023-02-17T23:18:09.392Z,15.28
2023-02-17T23:20:40.236Z,15.13
2023-02-17T23:23:09.832Z,15.12
2023-02-17T23:25:41.199Z,15.17
2023-02-17T23:28:13.255Z,15.25
2023-02-17T23:30:43.509Z,15.33
2023-02-17T23:33:13.060Z,15.39
2023-02-17T23:35:44.845Z,15.19
2023-02-17T23:38:14.550Z,15.09
2023-02-17T23:40:44.024Z,15.07
2023-02-17T23:43:16.140Z,15.14
2023-02-17T23:45:45.572Z,15.12
2023-02-17T23:48:15.220Z,15.18
2023-02-17T23:50:44.706Z,15.23
2023-02-17T23:53:15.421Z,15.11
2023-02-17T23:55:44.895Z,15.04
2023-02-17T23:58:17.888Z,15.08
